Terminal Aerodrome Forecast
Issued by NWS Sioux Falls, SD

Home | Current Version | Previous Version | Text Only | Print | Product List | Glossary On
Versions: 1 2 3 4 5 6 7 8 9 10 11 12 13 14 15 16 17 18 19 20 21 22 23 24 25 26 27 28 29 30 31 32 33 34
602
FTUS43 KFSD 271139
TAFSUX
TAF
KSUX 271139Z 2712/2812 32013KT P6SM OVC018
     FM271500 32013KT P6SM OVC022
     FM272000 31009KT P6SM SCT030
     FM272100 32008KT P6SM FEW200
     FM280200 02005KT P6SM SCT250
     FM280600 05008KT P6SM BKN110=

USA.gov is the U.S. government's official web portal to all federal, state and local government web resources and services.